Time;durP1;ratioP1;P1;durP2;ratioP2;P2;SDS_P1;SDS_P2;PMS_P1;PMS_P2;Temp;Humidity;BMP_temperature;BMP_pressure;BME280_temperature;BME280_humidity;BME280_pressure;Samples;Min_cycle;Max_cycle;Signal;HPM_P1;HPM_P2
2023/03/31 00:00:28;;;;;;;6.22;3.10;;;;;;;;;;12901080;22;20043;-76
2023/03/31 00:05:32;;;;;;;3.33;2.42;;;;;;;;;;12922272;22;20020;-77
2023/03/31 00:10:33;;;;;;;4.90;2.40;;;;;;;;;;12931331;23;20008;-77
2023/03/31 00:15:34;;;;;;;3.28;2.15;;;;;;;;;;12908496;22;20084;-79
2023/03/31 00:20:37;;;;;;;5.07;2.47;;;;;;;;;;12895994;22;20035;-78
2023/03/31 00:25:40;;;;;;;7.07;3.08;;;;;;;;;;12900547;23;20016;-80
2023/03/31 00:30:42;;;;;;;4.55;2.60;;;;;;;;;;12909713;23;20016;-80
2023/03/31 00:35:50;;;;;;;6.50;2.60;;;;;;;;;;12857539;23;20341;-79
2023/03/31 00:40:51;;;;;;;4.78;2.88;;;;;;;;;;12855749;23;20012;-80
2023/03/31 00:45:51;;;;;;;6.45;3.10;;;;;;;;;;12864667;23;20023;-79
2023/03/31 00:50:58;;;;;;;8.13;3.40;;;;;;;;;;12900605;23;20091;-81
2023/03/31 00:56:01;;;;;;;4.97;3.03;;;;;;;;;;12858953;22;20004;-79
2023/03/31 01:01:04;;;;;;;6.43;3.10;;;;;;;;;;12888318;23;20019;-79
2023/03/31 01:06:05;;;;;;;4.72;2.90;;;;;;;;;;12875546;22;20020;-81
2023/03/31 01:11:10;;;;;;;4.77;2.77;;;;;;;;;;12867224;23;20047;-79
2023/03/31 01:16:12;;;;;;;4.00;2.88;;;;;;;;;;12853093;22;20257;-79
2023/03/31 01:21:32;;;;;;;5.13;3.00;;;;;;;;;;12859650;22;20012;-79
2023/03/31 01:26:51;;;;;;;5.38;2.85;;;;;;;;;;12917331;22;20863;-79
2023/03/31 01:32:26;;;;;;;6.10;3.25;;;;;;;;;;12899944;22;20019;-79
2023/03/31 01:37:46;;;;;;;7.90;3.30;;;;;;;;;;12835439;23;20016;-79
2023/03/31 01:42:58;;;;;;;5.55;3.22;;;;;;;;;;12921745;22;20016;-80
2023/03/31 01:48:11;;;;;;;5.22;2.80;;;;;;;;;;12885940;22;20367;-79
2023/03/31 01:53:13;;;;;;;5.53;2.97;;;;;;;;;;12949817;22;20096;-78
2023/03/31 01:58:22;;;;;;;5.80;2.90;;;;;;;;;;12895893;23;20012;-77
2023/03/31 02:03:25;;;;;;;4.53;3.10;;;;;;;;;;12896269;23;20020;-78
2023/03/31 02:08:29;;;;;;;4.80;2.83;;;;;;;;;;12904401;23;20024;-78
2023/03/31 02:13:33;;;;;;;6.45;2.97;;;;;;;;;;12933876;22;20002;-79
2023/03/31 02:18:37;;;;;;;6.57;3.37;;;;;;;;;;12962526;22;20300;-78
2023/03/31 02:23:37;;;;;;;9.13;3.83;;;;;;;;;;12957479;23;20015;-81
2023/03/31 02:28:39;;;;;;;6.38;3.33;;;;;;;;;;12902568;22;20014;-82
2023/03/31 02:33:40;;;;;;;6.50;3.03;;;;;;;;;;12942282;22;20008;-77
2023/03/31 02:38:53;;;;;;;4.32;2.85;;;;;;;;;;12901904;23;20012;-78
2023/03/31 02:43:55;;;;;;;6.25;3.88;;;;;;;;;;12878260;23;20012;-77
2023/03/31 02:49:05;;;;;;;5.53;2.75;;;;;;;;;;12899246;23;20020;-80
2023/03/31 02:54:14;;;;;;;8.27;3.08;;;;;;;;;;12848332;23;20008;-79
2023/03/31 02:59:38;;;;;;;6.47;3.30;;;;;;;;;;12897755;23;20020;-80
2023/03/31 03:04:50;;;;;;;8.52;3.25;;;;;;;;;;12869984;23;20016;-77
2023/03/31 03:09:59;;;;;;;5.22;3.33;;;;;;;;;;12847903;23;20338;-78
2023/03/31 03:15:09;;;;;;;5.82;3.00;;;;;;;;;;12876160;23;20024;-81
2023/03/31 03:20:10;;;;;;;9.05;3.20;;;;;;;;;;12893669;23;20139;-80
2023/03/31 03:25:19;;;;;;;8.18;3.38;;;;;;;;;;12926492;23;20024;-81
2023/03/31 03:30:28;;;;;;;7.30;3.20;;;;;;;;;;12900096;23;20091;-79
2023/03/31 03:35:28;;;;;;;6.05;3.20;;;;;;;;;;12913545;22;20014;-77
2023/03/31 03:40:31;;;;;;;9.70;3.20;;;;;;;;;;12934800;22;19989;-80
2023/03/31 03:45:36;;;;;;;6.22;3.45;;;;;;;;;;12889185;22;20725;-78
2023/03/31 03:50:40;;;;;;;8.00;3.95;;;;;;;;;;12903162;23;20016;-78
2023/03/31 03:55:44;;;;;;;7.05;3.88;;;;;;;;;;12909416;22;20012;-77
2023/03/31 04:00:45;;;;;;;6.47;3.55;;;;;;;;;;12900311;23;20016;-81
2023/03/31 04:05:48;;;;;;;5.03;3.30;;;;;;;;;;12867320;22;20804;-78
2023/03/31 04:10:50;;;;;;;7.15;3.45;;;;;;;;;;12866775;23;20020;-77
2023/03/31 04:15:50;;;;;;;6.47;3.15;;;;;;;;;;12892606;22;20422;-79
2023/03/31 04:21:04;;;;;;;6.90;2.97;;;;;;;;;;12866413;22;20043;-81
2023/03/31 04:26:07;;;;;;;5.65;2.60;;;;;;;;;;12896046;23;20713;-81
2023/03/31 04:31:08;;;;;;;9.80;3.25;;;;;;;;;;12898752;23;20015;-79
2023/03/31 04:36:18;;;;;;;8.13;3.40;;;;;;;;;;12909587;23;20023;-77
2023/03/31 04:41:22;;;;;;;7.28;3.10;;;;;;;;;;12907618;23;20675;-80
2023/03/31 04:46:24;;;;;;;;;;;;;;;;;;12883351;23;20016;-79
2023/03/31 04:51:24;;;;;;;7.60;3.20;;;;;;;;;;12933043;23;19999;-78
2023/03/31 04:56:26;;;;;;;12.15;3.50;;;;;;;;;;12915312;23;20000;-78
2023/03/31 05:01:31;;;;;;;6.35;2.78;;;;;;;;;;12934406;22;20011;-80
2023/03/31 05:06:32;;;;;;;6.10;3.17;;;;;;;;;;12922678;22;20020;-78
2023/03/31 05:11:32;;;;;;;7.32;2.67;;;;;;;;;;12936030;22;20322;-81
2023/03/31 05:16:36;;;;;;;7.22;3.70;;;;;;;;;;12910563;23;20012;-80
2023/03/31 05:21:38;;;;;;;9.57;3.35;;;;;;;;;;12870754;23;20035;-76
2023/03/31 05:26:39;;;;;;;6.47;3.35;;;;;;;;;;12879208;23;20451;-81
2023/03/31 05:31:45;;;;;;;8.55;3.42;;;;;;;;;;12885793;23;20085;-80
2023/03/31 05:36:47;;;;;;;6.50;3.40;;;;;;;;;;12904658;22;20000;-81
2023/03/31 05:41:47;;;;;;;9.50;4.00;;;;;;;;;;12893390;23;20008;-79
2023/03/31 05:46:47;;;;;;;9.95;4.88;;;;;;;;;;12954808;22;20016;-78
2023/03/31 05:51:49;;;;;;;7.63;4.80;;;;;;;;;;12913137;22;20009;-77
2023/03/31 05:56:51;;;;;;;7.95;5.07;;;;;;;;;;12899749;23;20266;-78
2023/03/31 06:01:51;;;;;;;10.35;4.80;;;;;;;;;;12905917;23;20046;-79
2023/03/31 06:06:54;;;;;;;9.35;4.60;;;;;;;;;;12926735;22;20031;-78
2023/03/31 06:11:56;;;;;;;9.82;4.70;;;;;;;;;;12940862;22;19996;-79
2023/03/31 06:16:57;;;;;;;7.63;4.80;;;;;;;;;;12973655;22;19999;-78
2023/03/31 06:21:57;;;;;;;6.93;4.30;;;;;;;;;;12887824;23;20425;-79
2023/03/31 06:26:59;;;;;;;8.90;3.67;;;;;;;;;;12872588;23;20028;-79
2023/03/31 06:32:00;;;;;;;8.03;3.93;;;;;;;;;;12849628;22;20572;-80
2023/03/31 06:37:00;;;;;;;6.75;3.80;;;;;;;;;;12878410;23;20020;-79
2023/03/31 06:42:00;;;;;;;8.13;5.00;;;;;;;;;;12904709;22;20012;-82
2023/03/31 06:47:03;;;;;;;7.82;4.75;;;;;;;;;;12940556;22;20266;-79
2023/03/31 06:52:03;;;;;;;8.30;4.60;;;;;;;;;;12960726;22;20019;-81
2023/03/31 06:57:04;;;;;;;11.93;5.03;;;;;;;;;;12903051;23;20520;-81
2023/03/31 07:02:05;;;;;;;9.18;4.70;;;;;;;;;;12915260;23;20035;-82
2023/03/31 07:07:05;;;;;;;7.70;3.85;;;;;;;;;;12904728;22;20082;-79
2023/03/31 07:12:09;;;;;;;9.37;4.47;;;;;;;;;;12855005;23;20757;-81
2023/03/31 07:17:09;;;;;;;11.77;4.40;;;;;;;;;;12880929;23;20251;-80
2023/03/31 07:22:10;;;;;;;9.38;4.80;;;;;;;;;;12913705;23;20016;-80
2023/03/31 07:27:11;;;;;;;12.00;6.00;;;;;;;;;;12852903;22;20535;-81
2023/03/31 07:32:11;;;;;;;11.63;5.27;;;;;;;;;;12903650;23;20008;-79
2023/03/31 07:37:12;;;;;;;10.80;5.45;;;;;;;;;;12875623;23;20243;-80
2023/03/31 07:42:16;;;;;;;11.13;5.20;;;;;;;;;;12899028;22;20427;-78
2023/03/31 07:47:17;;;;;;;13.82;6.57;;;;;;;;;;12876732;23;20759;-80
2023/03/31 07:52:18;;;;;;;9.70;6.05;;;;;;;;;;12881568;23;20023;-81
2023/03/31 07:57:19;;;;;;;12.63;6.63;;;;;;;;;;12904798;23;20023;-81
2023/03/31 08:02:19;;;;;;;10.20;6.25;;;;;;;;;;12902923;23;20015;-80
2023/03/31 08:07:20;;;;;;;12.48;7.20;;;;;;;;;;12847254;22;20108;-82
2023/03/31 08:12:21;;;;;;;14.43;7.97;;;;;;;;;;12901410;22;20098;-80
2023/03/31 08:17:22;;;;;;;16.50;8.05;;;;;;;;;;12877163;22;20023;-81
2023/03/31 08:22:24;;;;;;;14.60;8.23;;;;;;;;;;12906320;22;20095;-81
2023/03/31 08:27:25;;;;;;;17.35;8.73;;;;;;;;;;12876425;22;20120;-80
2023/03/31 08:32:25;;;;;;;16.45;8.93;;;;;;;;;;12902712;23;20104;-80
2023/03/31 08:37:27;;;;;;;14.48;8.40;;;;;;;;;;12887666;23;20019;-81
2023/03/31 08:42:34;;;;;;;19.90;9.15;;;;;;;;;;12881914;23;20020;-81
2023/03/31 08:47:36;;;;;;;18.30;9.57;;;;;;;;;;12931604;22;20034;-80
2023/03/31 08:52:41;;;;;;;13.32;8.70;;;;;;;;;;12948503;23;20000;-80
2023/03/31 08:58:00;;;;;;;14.10;8.30;;;;;;;;;;12890832;23;20020;-82
2023/03/31 09:03:01;;;;;;;12.85;7.80;;;;;;;;;;12923448;23;20016;-81
2023/03/31 09:08:23;;;;;;;11.48;7.30;;;;;;;;;;12912585;22;20022;-81
2023/03/31 09:13:30;;;;;;;11.13;6.80;;;;;;;;;;12892115;23;20043;-80
2023/03/31 09:18:34;;;;;;;9.45;6.35;;;;;;;;;;12900336;23;20059;-82
2023/03/31 09:23:37;;;;;;;9.88;6.43;;;;;;;;;;12913533;22;20004;-82
2023/03/31 09:28:38;;;;;;;10.20;6.03;;;;;;;;;;12930571;22;20016;-80
2023/03/31 09:33:43;;;;;;;14.30;6.43;;;;;;;;;;12907001;22;19996;-81
2023/03/31 09:38:44;;;;;;;8.93;5.97;;;;;;;;;;12891378;23;20702;-81
2023/03/31 09:43:48;;;;;;;7.40;5.53;;;;;;;;;;12921619;22;20008;-81
2023/03/31 09:48:59;;;;;;;7.38;5.72;;;;;;;;;;12931424;23;20013;-82
2023/03/31 09:53:59;;;;;;;8.80;5.25;;;;;;;;;;12960045;22;20011;-81
2023/03/31 09:59:01;;;;;;;5.38;4.18;;;;;;;;;;12908464;22;20013;-83
2023/03/31 10:04:06;;;;;;;8.17;4.87;;;;;;;;;;12961825;22;20003;-80
2023/03/31 10:09:10;;;;;;;6.95;3.97;;;;;;;;;;12960303;22;20083;-81
2023/03/31 10:14:15;;;;;;;3.88;3.13;;;;;;;;;;12939170;22;20016;-79
2023/03/31 10:19:21;;;;;;;4.68;3.30;;;;;;;;;;12936761;22;20130;-81
2023/03/31 10:24:22;;;;;;;5.03;3.20;;;;;;;;;;12933024;22;20038;-82
2023/03/31 10:29:30;;;;;;;5.13;2.90;;;;;;;;;;12938726;22;20000;-80
2023/03/31 10:34:32;;;;;;;3.20;2.40;;;;;;;;;;12952017;22;20023;-81
2023/03/31 10:39:34;;;;;;;5.15;2.35;;;;;;;;;;12901100;23;20078;-81
2023/03/31 10:44:36;;;;;;;4.80;2.42;;;;;;;;;;12907558;23;20044;-80
2023/03/31 10:49:42;;;;;;;3.92;1.73;;;;;;;;;;12898980;23;20084;-83
2023/03/31 10:54:52;;;;;;;3.53;1.88;;;;;;;;;;12886336;23;20022;-80
2023/03/31 11:00:00;;;;;;;6.13;1.92;;;;;;;;;;12926202;23;20016;-80
2023/03/31 11:05:01;;;;;;;6.07;2.05;;;;;;;;;;12881486;22;20024;-81
2023/03/31 11:10:01;;;;;;;7.05;2.50;;;;;;;;;;12898274;23;20868;-84
2023/03/31 11:15:08;;;;;;;6.93;1.90;;;;;;;;;;12883923;23;20051;-82
2023/03/31 11:20:38;;;;;;;4.28;1.90;;;;;;;;;;12856752;23;20054;-81
2023/03/31 11:25:46;;;;;;;7.00;2.67;;;;;;;;;;12843476;23;20031;-82
2023/03/31 11:30:58;;;;;;;3.85;1.90;;;;;;;;;;12884906;23;20793;-82
2023/03/31 11:36:13;;;;;;;2.97;1.80;;;;;;;;;;12880097;22;20044;-82
2023/03/31 11:41:21;;;;;;;3.88;1.67;;;;;;;;;;12900894;22;20012;-79
2023/03/31 11:46:29;;;;;;;3.63;1.70;;;;;;;;;;12845089;23;20034;-80
2023/03/31 11:51:33;;;;;;;4.55;2.00;;;;;;;;;;12868197;22;20008;-82
2023/03/31 11:56:35;;;;;;;2.30;1.52;;;;;;;;;;12886262;23;20022;-81
2023/03/31 12:01:51;;;;;;;3.05;1.40;;;;;;;;;;12913379;23;20034;-83
2023/03/31 12:06:57;;;;;;;4.40;1.60;;;;;;;;;;12957174;22;20048;-83
2023/03/31 12:12:00;;;;;;;2.65;1.55;;;;;;;;;;12969545;22;19996;-80
2023/03/31 12:17:11;;;;;;;3.05;0.90;;;;;;;;;;12907226;22;20020;-80
2023/03/31 12:22:17;;;;;;;2.93;1.10;;;;;;;;;;12901456;23;20012;-80
2023/03/31 12:27:26;;;;;;;1.98;0.82;;;;;;;;;;12853934;22;20028;-80
2023/03/31 12:32:35;;;;;;;2.22;1.10;;;;;;;;;;12892636;22;20018;-82
2023/03/31 12:37:52;;;;;;;2.30;0.90;;;;;;;;;;12918199;23;20016;-83
2023/03/31 12:43:05;;;;;;;2.03;0.95;;;;;;;;;;12913021;23;20012;-82
2023/03/31 12:48:09;;;;;;;;;;;;;;;;;;12922771;23;20004;-82
2023/03/31 12:53:33;;;;;;;3.13;1.10;;;;;;;;;;12889663;23;19911;-83
2023/03/31 12:58:38;;;;;;;1.98;0.80;;;;;;;;;;12928867;22;20111;-85
2023/03/31 13:03:41;;;;;;;2.25;1.40;;;;;;;;;;12917104;23;20465;-83
2023/03/31 13:08:53;;;;;;;3.65;1.13;;;;;;;;;;12884310;23;20028;-82
2023/03/31 13:14:14;;;;;;;3.33;1.20;;;;;;;;;;12937148;22;20008;-82
2023/03/31 13:19:34;;;;;;;4.07;1.42;;;;;;;;;;12920236;23;20028;-84
2023/03/31 13:24:35;;;;;;;3.50;1.20;;;;;;;;;;12954912;22;20376;-82
2023/03/31 13:29:39;;;;;;;2.03;1.17;;;;;;;;;;12965548;22;20012;-82
2023/03/31 13:34:49;;;;;;;2.95;1.00;;;;;;;;;;12920984;23;20000;-82
2023/03/31 13:40:09;;;;;;;3.10;1.05;;;;;;;;;;12964925;22;20002;-84
2023/03/31 13:45:22;;;;;;;2.28;1.25;;;;;;;;;;13037909;22;20055;-80
2023/03/31 13:50:32;;;;;;;4.00;1.08;;;;;;;;;;13000041;22;20007;-81
2023/03/31 13:55:48;;;;;;;4.07;1.00;;;;;;;;;;12941632;22;20023;-81
2023/03/31 14:01:00;;;;;;;3.55;0.90;;;;;;;;;;12931034;22;20087;-82
2023/03/31 14:06:04;;;;;;;2.33;1.10;;;;;;;;;;12899581;22;20024;-85
2023/03/31 14:11:22;;;;;;;2.40;1.10;;;;;;;;;;12945554;22;20020;-82
2023/03/31 14:16:24;;;;;;;4.05;1.02;;;;;;;;;;12973963;22;19996;-83
2023/03/31 14:21:42;;;;;;;3.22;0.90;;;;;;;;;;12888711;22;20008;-81
2023/03/31 14:26:50;;;;;;;4.10;1.35;;;;;;;;;;12878978;23;20107;-83
2023/03/31 14:31:50;;;;;;;3.15;0.90;;;;;;;;;;12921474;23;20055;-85
2023/03/31 14:36:59;;;;;;;1.15;1.02;;;;;;;;;;12917131;23;20019;-82
2023/03/31 14:42:06;;;;;;;2.72;1.00;;;;;;;;;;12888630;23;20083;-84
2023/03/31 14:47:21;;;;;;;3.05;0.82;;;;;;;;;;12899537;23;20210;-87
2023/03/31 14:52:23;;;;;;;2.50;0.90;;;;;;;;;;12927117;23;20475;-85
2023/03/31 14:57:46;;;;;;;2.42;1.58;;;;;;;;;;12887358;23;20035;-83
2023/03/31 15:02:46;;;;;;;3.05;1.27;;;;;;;;;;12910883;22;20103;-83
2023/03/31 15:07:47;;;;;;;3.17;1.60;;;;;;;;;;12945279;22;20015;-83
2023/03/31 15:12:48;;;;;;;2.13;1.10;;;;;;;;;;12945647;22;20239;-80
2023/03/31 15:17:51;;;;;;;3.05;0.90;;;;;;;;;;12920739;23;20016;-81
2023/03/31 15:22:52;;;;;;;2.37;0.97;;;;;;;;;;12877158;23;20048;-81
2023/03/31 15:27:55;;;;;;;3.95;1.23;;;;;;;;;;12889533;23;20023;-82
2023/03/31 15:32:58;;;;;;;4.68;1.30;;;;;;;;;;12901330;23;20008;-81
2023/03/31 15:38:00;;;;;;;4.53;1.05;;;;;;;;;;12893913;23;20018;-82
2023/03/31 15:43:03;;;;;;;2.07;0.90;;;;;;;;;;12918564;22;20012;-82
2023/03/31 15:48:05;;;;;;;1.17;0.65;;;;;;;;;;12947124;22;20053;-81
2023/03/31 15:53:19;;;;;;;1.63;0.88;;;;;;;;;;12934651;22;20100;-79
2023/03/31 15:58:22;;;;;;;1.52;0.70;;;;;;;;;;12943897;22;20023;-81
2023/03/31 16:03:37;;;;;;;1.52;0.77;;;;;;;;;;12935255;22;20019;-83
2023/03/31 16:08:56;;;;;;;2.75;1.02;;;;;;;;;;12915631;22;20707;-84
2023/03/31 16:13:57;;;;;;;3.17;0.90;;;;;;;;;;12886125;23;20012;-86
2023/03/31 16:19:03;;;;;;;3.30;1.15;;;;;;;;;;12897591;23;20016;-81
2023/03/31 16:24:04;;;;;;;4.60;1.13;;;;;;;;;;12905526;22;20015;-78
2023/03/31 16:29:04;;;;;;;4.00;0.90;;;;;;;;;;12911511;23;20024;-86
2023/03/31 16:34:06;;;;;;;3.70;1.30;;;;;;;;;;12890877;23;20108;-84
2023/03/31 16:39:07;;;;;;;3.70;1.25;;;;;;;;;;12889317;23;20031;-82
2023/03/31 16:44:08;;;;;;;2.58;1.00;;;;;;;;;;12924311;22;20014;-80
2023/03/31 16:49:08;;;;;;;2.90;1.48;;;;;;;;;;12941771;22;20008;-79
2023/03/31 16:54:09;;;;;;;3.25;1.02;;;;;;;;;;12965821;22;20159;-82
2023/03/31 16:59:09;;;;;;;1.95;0.90;;;;;;;;;;12932903;22;20000;-79
2023/03/31 17:04:12;;;;;;;3.08;0.98;;;;;;;;;;12931854;22;20026;-80
2023/03/31 17:09:12;;;;;;;2.28;0.90;;;;;;;;;;12933649;22;20026;-79
2023/03/31 17:14:13;;;;;;;2.75;1.00;;;;;;;;;;12966648;22;19996;-80
2023/03/31 17:19:16;;;;;;;5.27;1.20;;;;;;;;;;12969255;22;20000;-81
2023/03/31 17:24:16;;;;;;;4.28;1.80;;;;;;;;;;12937776;22;20630;-84
2023/03/31 17:29:17;;;;;;;2.63;1.20;;;;;;;;;;12857854;23;20028;-83
2023/03/31 17:34:17;;;;;;;2.60;1.08;;;;;;;;;;12913487;22;20318;-84
2023/03/31 17:39:17;;;;;;;5.60;1.80;;;;;;;;;;12923503;22;20012;-81
2023/03/31 17:44:20;;;;;;;4.68;1.40;;;;;;;;;;12927200;23;20235;-80
2023/03/31 17:49:22;;;;;;;4.13;1.52;;;;;;;;;;12929580;22;20004;-78
2023/03/31 17:54:24;;;;;;;3.80;1.53;;;;;;;;;;12939613;22;20011;-81
2023/03/31 17:59:25;;;;;;;5.57;1.25;;;;;;;;;;12905459;23;20249;-79
2023/03/31 18:04:26;;;;;;;3.30;1.60;;;;;;;;;;12902412;22;20005;-81
2023/03/31 18:09:29;;;;;;;5.15;1.42;;;;;;;;;;12931806;22;20027;-81
2023/03/31 18:14:29;;;;;;;3.40;1.48;;;;;;;;;;12896973;22;20018;-82
2023/03/31 18:19:30;;;;;;;4.43;1.33;;;;;;;;;;12955164;22;20435;-82
2023/03/31 18:24:33;;;;;;;3.85;1.50;;;;;;;;;;12917353;23;20524;-83
2023/03/31 18:29:33;;;;;;;5.78;1.70;;;;;;;;;;12915852;22;20064;-84
2023/03/31 18:34:36;;;;;;;5.05;1.30;;;;;;;;;;12910118;23;20015;-81
2023/03/31 18:39:36;;;;;;;3.38;1.13;;;;;;;;;;12899652;22;20012;-83
2023/03/31 18:44:38;;;;;;;1.60;1.00;;;;;;;;;;12884054;23;20067;-82
2023/03/31 18:49:39;;;;;;;3.45;1.73;;;;;;;;;;12932248;22;20019;-81
2023/03/31 18:54:40;;;;;;;4.95;1.58;;;;;;;;;;12959265;22;20383;-82
2023/03/31 18:59:41;;;;;;;2.47;1.23;;;;;;;;;;12893344;23;20050;-83
2023/03/31 19:04:45;;;;;;;4.10;1.02;;;;;;;;;;12935584;23;20012;-85
2023/03/31 19:09:48;;;;;;;1.60;0.98;;;;;;;;;;12875725;23;20073;-81
2023/03/31 19:14:48;;;;;;;2.30;1.48;;;;;;;;;;12874658;22;20011;-80
2023/03/31 19:19:49;;;;;;;1.98;1.15;;;;;;;;;;12865013;22;20016;-81
2023/03/31 19:24:50;;;;;;;2.65;0.93;;;;;;;;;;12910024;23;20062;-80
2023/03/31 19:29:51;;;;;;;3.13;1.08;;;;;;;;;;12912362;23;20016;-80
2023/03/31 19:34:53;;;;;;;3.65;1.17;;;;;;;;;;12874388;22;21021;-81
2023/03/31 19:39:53;;;;;;;2.30;0.85;;;;;;;;;;12846797;23;20016;-83
2023/03/31 19:44:55;;;;;;;2.20;0.97;;;;;;;;;;12905743;23;20015;-83
2023/03/31 19:49:56;;;;;;;2.17;1.00;;;;;;;;;;12916115;23;20280;-81
2023/03/31 19:54:59;;;;;;;1.60;1.00;;;;;;;;;;12952784;22;20016;-81
2023/03/31 20:00:00;;;;;;;1.77;0.80;;;;;;;;;;12909280;23;20270;-80
2023/03/31 20:05:01;;;;;;;1.65;0.70;;;;;;;;;;12883403;22;20468;-81
2023/03/31 20:10:01;;;;;;;1.50;0.75;;;;;;;;;;12905240;23;20012;-81
2023/03/31 20:15:04;;;;;;;2.08;0.90;;;;;;;;;;12939892;22;20215;-82
2023/03/31 20:20:06;;;;;;;1.67;0.88;;;;;;;;;;12936976;22;20019;-83
2023/03/31 20:25:07;;;;;;;2.97;0.77;;;;;;;;;;12923565;23;20023;-82
2023/03/31 20:30:08;;;;;;;0.60;0.60;;;;;;;;;;12949909;22;19996;-82
2023/03/31 20:35:08;;;;;;;3.05;0.98;;;;;;;;;;12932528;22;19996;-79
2023/03/31 20:40:10;;;;;;;3.80;1.07;;;;;;;;;;12938706;22;19993;-79
2023/03/31 20:45:11;;;;;;;1.60;0.80;;;;;;;;;;12933653;22;20330;-80
2023/03/31 20:50:14;;;;;;;3.42;1.08;;;;;;;;;;12959199;22;20078;-81
2023/03/31 20:55:15;;;;;;;2.70;0.70;;;;;;;;;;12942576;22;20016;-80
2023/03/31 21:00:17;;;;;;;1.45;0.68;;;;;;;;;;12920786;22;20090;-79
2023/03/31 21:05:20;;;;;;;1.60;1.17;;;;;;;;;;12958908;22;20019;-80
2023/03/31 21:10:20;;;;;;;2.40;0.80;;;;;;;;;;12941743;22;20042;-81
2023/03/31 21:15:21;;;;;;;2.20;0.95;;;;;;;;;;12947789;22;20016;-84
2023/03/31 21:20:21;;;;;;;2.03;1.10;;;;;;;;;;12898247;22;20016;-83
2023/03/31 21:25:24;;;;;;;1.35;0.70;;;;;;;;;;12917953;23;20020;-81
2023/03/31 21:30:24;;;;;;;1.00;0.73;;;;;;;;;;12901607;23;20008;-79
2023/03/31 21:35:26;;;;;;;1.58;0.85;;;;;;;;;;12946736;22;20004;-80
2023/03/31 21:40:26;;;;;;;2.05;1.33;;;;;;;;;;12902821;23;20008;-80
2023/03/31 21:45:27;;;;;;;2.20;0.80;;;;;;;;;;12920335;23;20096;-79
2023/03/31 21:50:27;;;;;;;3.17;0.77;;;;;;;;;;12908623;22;20255;-80
2023/03/31 21:55:28;;;;;;;1.20;0.80;;;;;;;;;;12924049;22;20020;-80
2023/03/31 22:00:29;;;;;;;4.18;1.10;;;;;;;;;;12947138;23;20008;-79
2023/03/31 22:05:30;;;;;;;1.77;1.00;;;;;;;;;;12913544;22;20043;-77
2023/03/31 22:10:30;;;;;;;4.20;1.15;;;;;;;;;;12907858;23;20043;-79
2023/03/31 22:15:31;;;;;;;1.73;0.90;;;;;;;;;;12914839;23;20023;-80
2023/03/31 22:20:32;;;;;;;3.97;1.52;;;;;;;;;;12950651;23;20020;-79
2023/03/31 22:25:33;;;;;;;1.92;0.85;;;;;;;;;;12939140;22;20742;-79
2023/03/31 22:30:34;;;;;;;2.42;1.08;;;;;;;;;;12955207;22;20012;-78
2023/03/31 22:35:36;;;;;;;1.92;0.70;;;;;;;;;;12926580;23;20020;-80
2023/03/31 22:40:36;;;;;;;2.77;0.70;;;;;;;;;;12925669;23;20429;-79
2023/03/31 22:45:36;;;;;;;1.40;0.77;;;;;;;;;;12931474;22;20863;-79
2023/03/31 22:50:38;;;;;;;2.55;0.90;;;;;;;;;;12906090;22;20614;-79
2023/03/31 22:55:48;;;;;;;1.98;0.80;;;;;;;;;;12877989;23;20012;-82
2023/03/31 23:01:08;;;;;;;3.05;0.88;;;;;;;;;;12943074;22;20008;-80
2023/03/31 23:06:15;;;;;;;2.03;0.80;;;;;;;;;;12924220;22;20016;-79
2023/03/31 23:11:17;;;;;;;3.20;0.95;;;;;;;;;;12974139;22;20255;-80
2023/03/31 23:16:20;;;;;;;2.75;0.80;;;;;;;;;;12922801;23;20094;-79
2023/03/31 23:21:25;;;;;;;3.20;1.00;;;;;;;;;;12928747;23;20023;-79
2023/03/31 23:26:26;;;;;;;2.58;1.05;;;;;;;;;;12917398;23;20018;-82
2023/03/31 23:31:28;;;;;;;3.17;0.90;;;;;;;;;;12958976;23;20020;-82
2023/03/31 23:36:31;;;;;;;2.38;0.80;;;;;;;;;;12935836;22;20019;-81
2023/03/31 23:41:38;;;;;;;2.90;0.80;;;;;;;;;;12906645;23;20023;-80
2023/03/31 23:46:41;;;;;;;3.78;1.10;;;;;;;;;;12968688;22;20067;-79
2023/03/31 23:51:45;;;;;;;3.80;1.02;;;;;;;;;;12969410;22;20011;-79
2023/03/31 23:56:47;;;;;;;1.75;1.30;;;;;;;;;;12973862;22;20008;-81
